sensor_id;sensor_type;location;lat;lon;timestamp;P1;durP1;ratioP1;P2;durP2;ratioP2
15096;SDS011;7649;52.084;7.478;2023-02-10T00:01:01;34.80;;;23.80;;
15096;SDS011;7649;52.084;7.478;2023-02-10T00:03:30;35.07;;;23.77;;
15096;SDS011;7649;52.084;7.478;2023-02-10T00:05:59;34.10;;;23.67;;
15096;SDS011;7649;52.084;7.478;2023-02-10T00:08:27;35.10;;;23.33;;
15096;SDS011;7649;52.084;7.478;2023-02-10T00:10:56;36.23;;;23.97;;
15096;SDS011;7649;52.084;7.478;2023-02-10T00:13:25;34.20;;;24.17;;
15096;SDS011;7649;52.084;7.478;2023-02-10T00:15:54;38.33;;;23.97;;
15096;SDS011;7649;52.084;7.478;2023-02-10T00:18:22;35.73;;;24.60;;
15096;SDS011;7649;52.084;7.478;2023-02-10T00:20:52;34.67;;;24.47;;
15096;SDS011;7649;52.084;7.478;2023-02-10T00:23:20;35.40;;;24.83;;
15096;SDS011;7649;52.084;7.478;2023-02-10T00:25:48;33.90;;;24.00;;
15096;SDS011;7649;52.084;7.478;2023-02-10T00:28:16;34.37;;;24.50;;
15096;SDS011;7649;52.084;7.478;2023-02-10T00:30:45;37.93;;;24.57;;
15096;SDS011;7649;52.084;7.478;2023-02-10T00:33:13;36.27;;;24.10;;
15096;SDS011;7649;52.084;7.478;2023-02-10T00:35:41;39.37;;;26.03;;
15096;SDS011;7649;52.084;7.478;2023-02-10T00:38:11;35.13;;;25.73;;
15096;SDS011;7649;52.084;7.478;2023-02-10T00:40:40;39.53;;;25.83;;
15096;SDS011;7649;52.084;7.478;2023-02-10T00:43:08;41.97;;;26.33;;
15096;SDS011;7649;52.084;7.478;2023-02-10T00:45:36;38.40;;;26.13;;
15096;SDS011;7649;52.084;7.478;2023-02-10T00:48:05;39.07;;;26.07;;
15096;SDS011;7649;52.084;7.478;2023-02-10T00:50:33;40.63;;;26.00;;
15096;SDS011;7649;52.084;7.478;2023-02-10T00:53:01;38.83;;;26.30;;
15096;SDS011;7649;52.084;7.478;2023-02-10T00:55:31;50.37;;;28.33;;
15096;SDS011;7649;52.084;7.478;2023-02-10T00:57:59;47.00;;;27.60;;
15096;SDS011;7649;52.084;7.478;2023-02-10T01:00:27;43.73;;;27.73;;
15096;SDS011;7649;52.084;7.478;2023-02-10T01:02:56;41.73;;;26.80;;
15096;SDS011;7649;52.084;7.478;2023-02-10T01:05:24;42.33;;;28.03;;
15096;SDS011;7649;52.084;7.478;2023-02-10T01:07:52;38.77;;;27.43;;
15096;SDS011;7649;52.084;7.478;2023-02-10T01:10:22;43.37;;;26.70;;
15096;SDS011;7649;52.084;7.478;2023-02-10T01:12:51;47.07;;;27.93;;
15096;SDS011;7649;52.084;7.478;2023-02-10T01:15:19;44.40;;;27.47;;
15096;SDS011;7649;52.084;7.478;2023-02-10T01:17:48;44.70;;;29.63;;
15096;SDS011;7649;52.084;7.478;2023-02-10T01:20:16;42.07;;;27.63;;
15096;SDS011;7649;52.084;7.478;2023-02-10T01:22:45;38.73;;;27.73;;
15096;SDS011;7649;52.084;7.478;2023-02-10T01:25:13;41.23;;;28.33;;
15096;SDS011;7649;52.084;7.478;2023-02-10T01:27:41;44.87;;;28.53;;
15096;SDS011;7649;52.084;7.478;2023-02-10T01:30:11;41.23;;;28.87;;
15096;SDS011;7649;52.084;7.478;2023-02-10T01:32:40;49.07;;;27.30;;
15096;SDS011;7649;52.084;7.478;2023-02-10T01:35:08;41.50;;;26.90;;
15096;SDS011;7649;52.084;7.478;2023-02-10T01:37:36;45.83;;;28.27;;
15096;SDS011;7649;52.084;7.478;2023-02-10T01:40:05;41.20;;;27.67;;
15096;SDS011;7649;52.084;7.478;2023-02-10T01:42:33;44.17;;;27.40;;
15096;SDS011;7649;52.084;7.478;2023-02-10T01:45:19;41.70;;;27.27;;
15096;SDS011;7649;52.084;7.478;2023-02-10T01:47:48;51.70;;;26.97;;
15096;SDS011;7649;52.084;7.478;2023-02-10T01:50:19;39.43;;;27.53;;
15096;SDS011;7649;52.084;7.478;2023-02-10T01:52:47;46.40;;;28.40;;
15096;SDS011;7649;52.084;7.478;2023-02-10T01:55:17;41.20;;;26.87;;
15096;SDS011;7649;52.084;7.478;2023-02-10T01:57:46;47.37;;;27.27;;
15096;SDS011;7649;52.084;7.478;2023-02-10T02:00:21;47.60;;;28.77;;
15096;SDS011;7649;52.084;7.478;2023-02-10T02:02:50;41.00;;;27.73;;
15096;SDS011;7649;52.084;7.478;2023-02-10T02:05:20;44.00;;;27.53;;
15096;SDS011;7649;52.084;7.478;2023-02-10T02:07:48;42.70;;;28.37;;
15096;SDS011;7649;52.084;7.478;2023-02-10T02:10:17;40.30;;;28.30;;
15096;SDS011;7649;52.084;7.478;2023-02-10T02:12:48;45.70;;;29.87;;
15096;SDS011;7649;52.084;7.478;2023-02-10T02:15:19;50.70;;;28.70;;
15096;SDS011;7649;52.084;7.478;2023-02-10T02:17:52;49.73;;;29.57;;
15096;SDS011;7649;52.084;7.478;2023-02-10T02:20:29;41.03;;;28.27;;
15096;SDS011;7649;52.084;7.478;2023-02-10T02:32:12;43.07;;;29.30;;
15096;SDS011;7649;52.084;7.478;2023-02-10T02:34:44;44.93;;;30.43;;
15096;SDS011;7649;52.084;7.478;2023-02-10T02:37:17;47.27;;;30.10;;
15096;SDS011;7649;52.084;7.478;2023-02-10T02:39:47;45.40;;;29.57;;
15096;SDS011;7649;52.084;7.478;2023-02-10T02:42:18;41.33;;;29.33;;
15096;SDS011;7649;52.084;7.478;2023-02-10T02:44:47;47.77;;;30.37;;
15096;SDS011;7649;52.084;7.478;2023-02-10T02:50:09;46.00;;;30.67;;
15096;SDS011;7649;52.084;7.478;2023-02-10T02:52:42;46.97;;;31.43;;
15096;SDS011;7649;52.084;7.478;2023-02-10T02:55:18;42.67;;;30.37;;
15096;SDS011;7649;52.084;7.478;2023-02-10T02:57:52;44.87;;;30.33;;
15096;SDS011;7649;52.084;7.478;2023-02-10T03:00:23;44.40;;;29.83;;
15096;SDS011;7649;52.084;7.478;2023-02-10T03:02:54;39.73;;;29.50;;
15096;SDS011;7649;52.084;7.478;2023-02-10T03:05:26;45.47;;;30.77;;
15096;SDS011;7649;52.084;7.478;2023-02-10T03:07:56;46.57;;;30.63;;
15096;SDS011;7649;52.084;7.478;2023-02-10T03:10:24;46.63;;;31.57;;
15096;SDS011;7649;52.084;7.478;2023-02-10T03:12:52;43.90;;;30.37;;
15096;SDS011;7649;52.084;7.478;2023-02-10T03:15:21;48.63;;;31.80;;
15096;SDS011;7649;52.084;7.478;2023-02-10T03:17:49;46.70;;;30.97;;
15096;SDS011;7649;52.084;7.478;2023-02-10T03:20:17;50.40;;;32.83;;
15096;SDS011;7649;52.084;7.478;2023-02-10T03:22:47;47.50;;;33.20;;
15096;SDS011;7649;52.084;7.478;2023-02-10T03:25:15;47.03;;;32.00;;
15096;SDS011;7649;52.084;7.478;2023-02-10T03:27:44;48.17;;;32.43;;
15096;SDS011;7649;52.084;7.478;2023-02-10T03:30:12;49.63;;;32.97;;
15096;SDS011;7649;52.084;7.478;2023-02-10T03:32:40;55.07;;;34.00;;
15096;SDS011;7649;52.084;7.478;2023-02-10T03:35:08;49.20;;;32.67;;
15096;SDS011;7649;52.084;7.478;2023-02-10T03:37:37;56.33;;;34.30;;
15096;SDS011;7649;52.084;7.478;2023-02-10T03:40:07;49.77;;;32.43;;
15096;SDS011;7649;52.084;7.478;2023-02-10T03:42:35;53.13;;;34.37;;
15096;SDS011;7649;52.084;7.478;2023-02-10T03:45:04;51.93;;;34.67;;
15096;SDS011;7649;52.084;7.478;2023-02-10T03:47:32;51.57;;;34.40;;
15096;SDS011;7649;52.084;7.478;2023-02-10T03:50:00;49.67;;;32.93;;
15096;SDS011;7649;52.084;7.478;2023-02-10T03:52:29;50.70;;;34.37;;
15096;SDS011;7649;52.084;7.478;2023-02-10T03:54:57;54.63;;;34.73;;
15096;SDS011;7649;52.084;7.478;2023-02-10T03:57:26;50.03;;;33.47;;
15096;SDS011;7649;52.084;7.478;2023-02-10T03:59:55;53.17;;;32.83;;
15096;SDS011;7649;52.084;7.478;2023-02-10T04:02:23;48.30;;;34.17;;
15096;SDS011;7649;52.084;7.478;2023-02-10T04:04:51;57.17;;;35.43;;
15096;SDS011;7649;52.084;7.478;2023-02-10T04:07:20;53.63;;;34.70;;
15096;SDS011;7649;52.084;7.478;2023-02-10T04:09:48;53.33;;;33.70;;
15096;SDS011;7649;52.084;7.478;2023-02-10T04:12:16;52.87;;;34.30;;
15096;SDS011;7649;52.084;7.478;2023-02-10T04:14:46;53.87;;;33.67;;
15096;SDS011;7649;52.084;7.478;2023-02-10T04:17:14;53.40;;;33.77;;
15096;SDS011;7649;52.084;7.478;2023-02-10T04:19:43;54.63;;;34.40;;
15096;SDS011;7649;52.084;7.478;2023-02-10T04:22:11;49.87;;;33.63;;
15096;SDS011;7649;52.084;7.478;2023-02-10T04:24:39;45.63;;;31.97;;
15096;SDS011;7649;52.084;7.478;2023-02-10T04:27:07;50.43;;;32.63;;
15096;SDS011;7649;52.084;7.478;2023-02-10T04:29:36;50.40;;;32.53;;
15096;SDS011;7649;52.084;7.478;2023-02-10T04:32:08;50.80;;;32.17;;
15096;SDS011;7649;52.084;7.478;2023-02-10T04:34:36;48.13;;;32.97;;
15096;SDS011;7649;52.084;7.478;2023-02-10T04:37:04;53.67;;;33.43;;
15096;SDS011;7649;52.084;7.478;2023-02-10T04:39:33;53.30;;;34.40;;
15096;SDS011;7649;52.084;7.478;2023-02-10T04:42:01;48.43;;;33.07;;
15096;SDS011;7649;52.084;7.478;2023-02-10T04:44:29;54.70;;;34.07;;
15096;SDS011;7649;52.084;7.478;2023-02-10T04:46:58;50.37;;;34.10;;
15096;SDS011;7649;52.084;7.478;2023-02-10T04:49:27;58.73;;;33.57;;
15096;SDS011;7649;52.084;7.478;2023-02-10T04:51:56;56.10;;;35.17;;
15096;SDS011;7649;52.084;7.478;2023-02-10T04:54:24;50.97;;;33.67;;
15096;SDS011;7649;52.084;7.478;2023-02-10T04:56:52;56.20;;;34.70;;
15096;SDS011;7649;52.084;7.478;2023-02-10T04:59:20;53.87;;;35.00;;
15096;SDS011;7649;52.084;7.478;2023-02-10T05:01:49;56.13;;;34.67;;
15096;SDS011;7649;52.084;7.478;2023-02-10T05:04:17;60.77;;;35.27;;
15096;SDS011;7649;52.084;7.478;2023-02-10T05:06:47;58.60;;;36.10;;
15096;SDS011;7649;52.084;7.478;2023-02-10T05:09:15;56.37;;;34.67;;
15096;SDS011;7649;52.084;7.478;2023-02-10T05:11:44;56.03;;;34.97;;
15096;SDS011;7649;52.084;7.478;2023-02-10T05:14:12;59.37;;;35.63;;
15096;SDS011;7649;52.084;7.478;2023-02-10T05:16:40;53.80;;;35.03;;
15096;SDS011;7649;52.084;7.478;2023-02-10T05:19:09;59.60;;;35.53;;
15096;SDS011;7649;52.084;7.478;2023-02-10T05:21:37;57.57;;;36.23;;
15096;SDS011;7649;52.084;7.478;2023-02-10T05:24:07;62.30;;;36.40;;
15096;SDS011;7649;52.084;7.478;2023-02-10T05:26:35;57.93;;;36.90;;
15096;SDS011;7649;52.084;7.478;2023-02-10T05:29:03;66.53;;;39.57;;
15096;SDS011;7649;52.084;7.478;2023-02-10T05:31:31;66.43;;;38.63;;
15096;SDS011;7649;52.084;7.478;2023-02-10T05:34:02;65.93;;;37.23;;
15096;SDS011;7649;52.084;7.478;2023-02-10T05:36:31;77.57;;;41.00;;
15096;SDS011;7649;52.084;7.478;2023-02-10T05:38:59;65.70;;;37.23;;
15096;SDS011;7649;52.084;7.478;2023-02-10T05:42:01;73.70;;;39.90;;
15096;SDS011;7649;52.084;7.478;2023-02-10T05:44:30;65.10;;;38.40;;
15096;SDS011;7649;52.084;7.478;2023-02-10T05:46:58;72.13;;;40.20;;
15096;SDS011;7649;52.084;7.478;2023-02-10T05:49:26;66.03;;;41.00;;
15096;SDS011;7649;52.084;7.478;2023-02-10T05:51:54;68.40;;;40.73;;
15096;SDS011;7649;52.084;7.478;2023-02-10T05:54:23;68.10;;;40.43;;
15096;SDS011;7649;52.084;7.478;2023-02-10T05:56:51;73.20;;;41.70;;
15096;SDS011;7649;52.084;7.478;2023-02-10T05:59:21;68.63;;;41.17;;
15096;SDS011;7649;52.084;7.478;2023-02-10T06:01:49;70.67;;;41.53;;
15096;SDS011;7649;52.084;7.478;2023-02-10T06:04:17;71.33;;;41.33;;
15096;SDS011;7649;52.084;7.478;2023-02-10T06:06:46;69.00;;;40.47;;
15096;SDS011;7649;52.084;7.478;2023-02-10T06:09:15;71.93;;;40.80;;
15096;SDS011;7649;52.084;7.478;2023-02-10T06:11:43;71.83;;;41.73;;
15096;SDS011;7649;52.084;7.478;2023-02-10T06:14:11;75.67;;;40.53;;
15096;SDS011;7649;52.084;7.478;2023-02-10T06:16:41;74.07;;;41.73;;
15096;SDS011;7649;52.084;7.478;2023-02-10T06:19:10;71.50;;;41.10;;
15096;SDS011;7649;52.084;7.478;2023-02-10T06:21:38;65.70;;;40.37;;
15096;SDS011;7649;52.084;7.478;2023-02-10T06:24:06;63.70;;;39.93;;
15096;SDS011;7649;52.084;7.478;2023-02-10T06:26:36;70.57;;;41.70;;
15096;SDS011;7649;52.084;7.478;2023-02-10T06:29:04;68.10;;;41.47;;
15096;SDS011;7649;52.084;7.478;2023-02-10T06:31:32;70.93;;;42.27;;
15096;SDS011;7649;52.084;7.478;2023-02-10T06:34:02;65.03;;;40.47;;
15096;SDS011;7649;52.084;7.478;2023-02-10T06:36:31;75.03;;;41.47;;
15096;SDS011;7649;52.084;7.478;2023-02-10T06:38:59;64.83;;;40.40;;
15096;SDS011;7649;52.084;7.478;2023-02-10T06:41:28;65.70;;;39.93;;
15096;SDS011;7649;52.084;7.478;2023-02-10T06:43:56;66.80;;;40.13;;
15096;SDS011;7649;52.084;7.478;2023-02-10T06:46:24;65.50;;;41.70;;
15096;SDS011;7649;52.084;7.478;2023-02-10T06:48:53;64.73;;;39.43;;
15096;SDS011;7649;52.084;7.478;2023-02-10T06:51:22;62.90;;;40.40;;
15096;SDS011;7649;52.084;7.478;2023-02-10T06:53:51;66.30;;;40.53;;
15096;SDS011;7649;52.084;7.478;2023-02-10T06:56:19;66.43;;;40.13;;
15096;SDS011;7649;52.084;7.478;2023-02-10T06:58:47;71.10;;;41.17;;
15096;SDS011;7649;52.084;7.478;2023-02-10T07:01:16;71.60;;;42.47;;
15096;SDS011;7649;52.084;7.478;2023-02-10T07:03:45;70.10;;;42.33;;
15096;SDS011;7649;52.084;7.478;2023-02-10T07:06:13;74.57;;;40.93;;
15096;SDS011;7649;52.084;7.478;2023-02-10T07:08:45;70.13;;;42.13;;
15096;SDS011;7649;52.084;7.478;2023-02-10T07:11:16;67.03;;;42.70;;
15096;SDS011;7649;52.084;7.478;2023-02-10T07:13:44;80.97;;;44.93;;
15096;SDS011;7649;52.084;7.478;2023-02-10T07:16:13;70.43;;;42.43;;
15096;SDS011;7649;52.084;7.478;2023-02-10T07:18:43;70.57;;;41.93;;
15096;SDS011;7649;52.084;7.478;2023-02-10T07:21:11;66.60;;;42.93;;
15096;SDS011;7649;52.084;7.478;2023-02-10T07:23:39;74.07;;;43.80;;
15096;SDS011;7649;52.084;7.478;2023-02-10T07:26:09;74.73;;;45.23;;
15096;SDS011;7649;52.084;7.478;2023-02-10T07:28:38;70.40;;;43.87;;
15096;SDS011;7649;52.084;7.478;2023-02-10T07:31:07;70.60;;;43.83;;
15096;SDS011;7649;52.084;7.478;2023-02-10T07:33:35;71.90;;;43.10;;
15096;SDS011;7649;52.084;7.478;2023-02-10T07:36:04;71.30;;;43.57;;
15096;SDS011;7649;52.084;7.478;2023-02-10T07:38:32;69.03;;;42.63;;
15096;SDS011;7649;52.084;7.478;2023-02-10T07:41:07;66.93;;;44.07;;
15096;SDS011;7649;52.084;7.478;2023-02-10T07:43:39;71.10;;;43.83;;
15096;SDS011;7649;52.084;7.478;2023-02-10T07:46:07;69.63;;;41.33;;
15096;SDS011;7649;52.084;7.478;2023-02-10T07:48:35;64.27;;;42.67;;
15096;SDS011;7649;52.084;7.478;2023-02-10T07:51:04;74.37;;;44.20;;
15096;SDS011;7649;52.084;7.478;2023-02-10T07:53:32;67.63;;;44.10;;
15096;SDS011;7649;52.084;7.478;2023-02-10T07:56:03;69.67;;;43.70;;
15096;SDS011;7649;52.084;7.478;2023-02-10T07:58:32;64.57;;;43.13;;
15096;SDS011;7649;52.084;7.478;2023-02-10T08:01:07;67.93;;;42.77;;
15096;SDS011;7649;52.084;7.478;2023-02-10T08:03:35;64.83;;;42.33;;
15096;SDS011;7649;52.084;7.478;2023-02-10T08:06:04;62.80;;;41.67;;
15096;SDS011;7649;52.084;7.478;2023-02-10T08:08:32;57.20;;;40.17;;
15096;SDS011;7649;52.084;7.478;2023-02-10T08:11:02;62.27;;;39.47;;
15096;SDS011;7649;52.084;7.478;2023-02-10T08:13:31;63.83;;;41.60;;
15096;SDS011;7649;52.084;7.478;2023-02-10T08:16:02;58.63;;;37.77;;
15096;SDS011;7649;52.084;7.478;2023-02-10T08:18:32;55.77;;;37.87;;
15096;SDS011;7649;52.084;7.478;2023-02-10T08:21:01;56.00;;;38.73;;
15096;SDS011;7649;52.084;7.478;2023-02-10T08:23:30;55.80;;;38.03;;
15096;SDS011;7649;52.084;7.478;2023-02-10T08:26:01;60.07;;;37.57;;
15096;SDS011;7649;52.084;7.478;2023-02-10T08:28:30;57.67;;;38.73;;
15096;SDS011;7649;52.084;7.478;2023-02-10T08:30:58;59.17;;;36.93;;
15096;SDS011;7649;52.084;7.478;2023-02-10T08:33:27;58.60;;;38.37;;
15096;SDS011;7649;52.084;7.478;2023-02-10T08:36:12;64.63;;;39.93;;
15096;SDS011;7649;52.084;7.478;2023-02-10T08:38:41;55.27;;;37.00;;
15096;SDS011;7649;52.084;7.478;2023-02-10T08:41:10;65.53;;;38.83;;
15096;SDS011;7649;52.084;7.478;2023-02-10T08:43:38;65.40;;;39.30;;
15096;SDS011;7649;52.084;7.478;2023-02-10T08:46:06;60.97;;;38.60;;
15096;SDS011;7649;52.084;7.478;2023-02-10T08:48:35;63.77;;;38.30;;
15096;SDS011;7649;52.084;7.478;2023-02-10T08:51:05;60.60;;;36.77;;
15096;SDS011;7649;52.084;7.478;2023-02-10T08:53:35;65.87;;;37.87;;
15096;SDS011;7649;52.084;7.478;2023-02-10T08:56:04;58.37;;;35.80;;
15096;SDS011;7649;52.084;7.478;2023-02-10T08:58:34;58.87;;;35.37;;
15096;SDS011;7649;52.084;7.478;2023-02-10T09:01:07;58.00;;;35.60;;
15096;SDS011;7649;52.084;7.478;2023-02-10T09:03:36;59.67;;;34.77;;
15096;SDS011;7649;52.084;7.478;2023-02-10T09:06:04;57.47;;;33.37;;
15096;SDS011;7649;52.084;7.478;2023-02-10T09:08:34;56.33;;;34.87;;
15096;SDS011;7649;52.084;7.478;2023-02-10T09:11:04;57.87;;;33.83;;
15096;SDS011;7649;52.084;7.478;2023-02-10T09:13:33;58.50;;;34.00;;
15096;SDS011;7649;52.084;7.478;2023-02-10T09:16:01;62.20;;;35.33;;
15096;SDS011;7649;52.084;7.478;2023-02-10T09:18:30;58.20;;;34.83;;
15096;SDS011;7649;52.084;7.478;2023-02-10T09:21:02;54.53;;;33.87;;
15096;SDS011;7649;52.084;7.478;2023-02-10T09:23:31;67.13;;;36.20;;
15096;SDS011;7649;52.084;7.478;2023-02-10T09:26:00;62.80;;;36.37;;
15096;SDS011;7649;52.084;7.478;2023-02-10T09:28:29;55.83;;;34.20;;
15096;SDS011;7649;52.084;7.478;2023-02-10T09:30:57;64.80;;;34.47;;
15096;SDS011;7649;52.084;7.478;2023-02-10T09:33:26;58.30;;;34.03;;
15096;SDS011;7649;52.084;7.478;2023-02-10T09:35:54;59.23;;;34.17;;
15096;SDS011;7649;52.084;7.478;2023-02-10T09:38:22;56.80;;;35.77;;
15096;SDS011;7649;52.084;7.478;2023-02-10T09:40:52;61.83;;;36.97;;
15096;SDS011;7649;52.084;7.478;2023-02-10T09:43:26;60.77;;;34.87;;
15096;SDS011;7649;52.084;7.478;2023-02-10T09:45:59;57.37;;;35.73;;
15096;SDS011;7649;52.084;7.478;2023-02-10T09:48:30;62.53;;;37.13;;
15096;SDS011;7649;52.084;7.478;2023-02-10T09:51:02;59.03;;;35.53;;
15096;SDS011;7649;52.084;7.478;2023-02-10T09:53:32;60.97;;;36.67;;
15096;SDS011;7649;52.084;7.478;2023-02-10T09:56:02;50.67;;;34.17;;
15096;SDS011;7649;52.084;7.478;2023-02-10T09:58:33;50.73;;;33.37;;
15096;SDS011;7649;52.084;7.478;2023-02-10T10:01:05;53.93;;;33.60;;
15096;SDS011;7649;52.084;7.478;2023-02-10T10:03:40;57.43;;;35.67;;
15096;SDS011;7649;52.084;7.478;2023-02-10T10:06:13;55.30;;;35.17;;
15096;SDS011;7649;52.084;7.478;2023-02-10T10:08:44;54.77;;;35.53;;
15096;SDS011;7649;52.084;7.478;2023-02-10T10:11:19;52.20;;;34.90;;
15096;SDS011;7649;52.084;7.478;2023-02-10T10:13:51;53.23;;;34.90;;
15096;SDS011;7649;52.084;7.478;2023-02-10T10:16:22;48.27;;;32.53;;
15096;SDS011;7649;52.084;7.478;2023-02-10T10:18:54;47.33;;;32.53;;
15096;SDS011;7649;52.084;7.478;2023-02-10T10:21:26;51.70;;;34.37;;
15096;SDS011;7649;52.084;7.478;2023-02-10T10:24:01;51.03;;;33.57;;
15096;SDS011;7649;52.084;7.478;2023-02-10T10:26:39;49.83;;;31.73;;
15096;SDS011;7649;52.084;7.478;2023-02-10T10:29:17;48.60;;;32.13;;
15096;SDS011;7649;52.084;7.478;2023-02-10T10:31:48;50.00;;;31.97;;
15096;SDS011;7649;52.084;7.478;2023-02-10T10:34:17;44.83;;;30.93;;
15096;SDS011;7649;52.084;7.478;2023-02-10T10:36:46;44.80;;;30.77;;
15096;SDS011;7649;52.084;7.478;2023-02-10T10:39:28;44.37;;;30.37;;
15096;SDS011;7649;52.084;7.478;2023-02-10T10:41:57;44.23;;;29.00;;
15096;SDS011;7649;52.084;7.478;2023-02-10T10:44:27;42.30;;;30.13;;
15096;SDS011;7649;52.084;7.478;2023-02-10T10:46:59;38.90;;;28.70;;
15096;SDS011;7649;52.084;7.478;2023-02-10T10:49:34;40.37;;;27.20;;
15096;SDS011;7649;52.084;7.478;2023-02-10T10:52:04;36.33;;;26.87;;
15096;SDS011;7649;52.084;7.478;2023-02-10T10:54:46;41.17;;;27.23;;
15096;SDS011;7649;52.084;7.478;2023-02-10T10:57:14;41.67;;;26.43;;
15096;SDS011;7649;52.084;7.478;2023-02-10T10:59:47;37.53;;;27.20;;
15096;SDS011;7649;52.084;7.478;2023-02-10T11:02:17;38.17;;;25.50;;
15096;SDS011;7649;52.084;7.478;2023-02-10T11:04:46;33.67;;;24.60;;
15096;SDS011;7649;52.084;7.478;2023-02-10T11:07:26;35.87;;;23.60;;
15096;SDS011;7649;52.084;7.478;2023-02-10T11:09:56;33.73;;;23.60;;
15096;SDS011;7649;52.084;7.478;2023-02-10T11:12:27;27.57;;;20.43;;
15096;SDS011;7649;52.084;7.478;2023-02-10T11:14:57;30.70;;;20.23;;
15096;SDS011;7649;52.084;7.478;2023-02-10T11:17:26;31.00;;;18.90;;
15096;SDS011;7649;52.084;7.478;2023-02-10T11:19:58;27.07;;;18.73;;
15096;SDS011;7649;52.084;7.478;2023-02-10T11:22:27;23.57;;;18.17;;
15096;SDS011;7649;52.084;7.478;2023-02-10T11:24:56;27.40;;;18.27;;
15096;SDS011;7649;52.084;7.478;2023-02-10T11:27:25;24.93;;;16.67;;
15096;SDS011;7649;52.084;7.478;2023-02-10T11:35:46;25.37;;;16.70;;
15096;SDS011;7649;52.084;7.478;2023-02-10T11:38:23;24.90;;;16.20;;
15096;SDS011;7649;52.084;7.478;2023-02-10T11:40:55;25.63;;;17.07;;
15096;SDS011;7649;52.084;7.478;2023-02-10T11:43:26;22.93;;;15.70;;
15096;SDS011;7649;52.084;7.478;2023-02-10T11:45:55;19.07;;;14.57;;
15096;SDS011;7649;52.084;7.478;2023-02-10T11:48:25;22.33;;;15.33;;
15096;SDS011;7649;52.084;7.478;2023-02-10T11:51:14;23.47;;;15.33;;
15096;SDS011;7649;52.084;7.478;2023-02-10T11:53:44;24.50;;;14.80;;
15096;SDS011;7649;52.084;7.478;2023-02-10T11:56:18;22.73;;;14.00;;
15096;SDS011;7649;52.084;7.478;2023-02-10T11:59:09;28.07;;;14.80;;
15096;SDS011;7649;52.084;7.478;2023-02-10T12:01:43;24.23;;;15.00;;
15096;SDS011;7649;52.084;7.478;2023-02-10T12:04:28;23.30;;;14.93;;
15096;SDS011;7649;52.084;7.478;2023-02-10T12:07:08;22.07;;;14.07;;
15096;SDS011;7649;52.084;7.478;2023-02-10T12:09:42;22.07;;;14.63;;
15096;SDS011;7649;52.084;7.478;2023-02-10T12:12:15;22.57;;;14.03;;
15096;SDS011;7649;52.084;7.478;2023-02-10T12:14:49;21.70;;;14.27;;
15096;SDS011;7649;52.084;7.478;2023-02-10T12:17:24;17.57;;;12.53;;
15096;SDS011;7649;52.084;7.478;2023-02-10T12:19:57;24.00;;;12.97;;
15096;SDS011;7649;52.084;7.478;2023-02-10T12:22:33;21.90;;;13.60;;
15096;SDS011;7649;52.084;7.478;2023-02-10T12:25:08;23.20;;;13.27;;
15096;SDS011;7649;52.084;7.478;2023-02-10T12:27:43;19.10;;;12.90;;
15096;SDS011;7649;52.084;7.478;2023-02-10T12:30:19;25.83;;;13.27;;
15096;SDS011;7649;52.084;7.478;2023-02-10T12:32:50;22.77;;;13.57;;
15096;SDS011;7649;52.084;7.478;2023-02-10T12:35:25;21.93;;;12.30;;
15096;SDS011;7649;52.084;7.478;2023-02-10T12:38:02;21.17;;;12.03;;
15096;SDS011;7649;52.084;7.478;2023-02-10T12:40:41;24.57;;;12.33;;
15096;SDS011;7649;52.084;7.478;2023-02-10T12:43:18;20.80;;;11.47;;
15096;SDS011;7649;52.084;7.478;2023-02-10T12:45:51;23.70;;;12.63;;
15096;SDS011;7649;52.084;7.478;2023-02-10T12:48:24;19.73;;;12.17;;
15096;SDS011;7649;52.084;7.478;2023-02-10T12:51:21;20.00;;;11.47;;
15096;SDS011;7649;52.084;7.478;2023-02-10T12:53:53;28.87;;;12.73;;
15096;SDS011;7649;52.084;7.478;2023-02-10T12:56:24;24.30;;;12.43;;
15096;SDS011;7649;52.084;7.478;2023-02-10T12:58:54;21.47;;;11.63;;
15096;SDS011;7649;52.084;7.478;2023-02-10T13:01:25;24.00;;;12.40;;
15096;SDS011;7649;52.084;7.478;2023-02-10T13:03:56;17.97;;;12.13;;
15096;SDS011;7649;52.084;7.478;2023-02-10T13:06:27;21.10;;;12.20;;
15096;SDS011;7649;52.084;7.478;2023-02-10T13:09:02;22.93;;;11.77;;
15096;SDS011;7649;52.084;7.478;2023-02-10T13:11:34;29.87;;;12.47;;
15096;SDS011;7649;52.084;7.478;2023-02-10T13:14:08;18.07;;;11.07;;
15096;SDS011;7649;52.084;7.478;2023-02-10T13:16:38;19.23;;;11.37;;
15096;SDS011;7649;52.084;7.478;2023-02-10T13:19:12;18.53;;;11.63;;
15096;SDS011;7649;52.084;7.478;2023-02-10T13:21:47;20.93;;;10.63;;
15096;SDS011;7649;52.084;7.478;2023-02-10T13:24:26;26.70;;;12.20;;
15096;SDS011;7649;52.084;7.478;2023-02-10T13:26:59;18.93;;;11.03;;
15096;SDS011;7649;52.084;7.478;2023-02-10T13:29:33;19.07;;;11.37;;
15096;SDS011;7649;52.084;7.478;2023-02-10T13:32:14;18.67;;;11.40;;
15096;SDS011;7649;52.084;7.478;2023-02-10T13:34:45;21.63;;;10.83;;
15096;SDS011;7649;52.084;7.478;2023-02-10T13:37:18;18.13;;;10.77;;
15096;SDS011;7649;52.084;7.478;2023-02-10T13:39:51;22.67;;;10.67;;
15096;SDS011;7649;52.084;7.478;2023-02-10T13:42:23;17.87;;;9.07;;
15096;SDS011;7649;52.084;7.478;2023-02-10T13:44:56;40.70;;;11.67;;
15096;SDS011;7649;52.084;7.478;2023-02-10T13:47:27;18.93;;;10.00;;
15096;SDS011;7649;52.084;7.478;2023-02-10T13:49:56;23.30;;;11.10;;
15096;SDS011;7649;52.084;7.478;2023-02-10T13:52:27;35.20;;;11.93;;
15096;SDS011;7649;52.084;7.478;2023-02-10T13:55:23;18.57;;;9.97;;
15096;SDS011;7649;52.084;7.478;2023-02-10T13:57:53;16.10;;;9.47;;
15096;SDS011;7649;52.084;7.478;2023-02-10T14:00:23;21.37;;;10.80;;
15096;SDS011;7649;52.084;7.478;2023-02-10T14:02:58;21.23;;;11.70;;
15096;SDS011;7649;52.084;7.478;2023-02-10T14:05:28;26.30;;;11.13;;
15096;SDS011;7649;52.084;7.478;2023-02-10T14:07:57;22.90;;;11.37;;
15096;SDS011;7649;52.084;7.478;2023-02-10T14:10:29;23.13;;;13.60;;
15096;SDS011;7649;52.084;7.478;2023-02-10T14:12:58;30.53;;;14.27;;
15096;SDS011;7649;52.084;7.478;2023-02-10T14:15:28;22.73;;;13.17;;
15096;SDS011;7649;52.084;7.478;2023-02-10T14:17:58;24.57;;;13.63;;
15096;SDS011;7649;52.084;7.478;2023-02-10T14:20:29;26.33;;;12.63;;
15096;SDS011;7649;52.084;7.478;2023-02-10T14:22:58;26.80;;;13.37;;
15096;SDS011;7649;52.084;7.478;2023-02-10T14:25:38;18.77;;;11.97;;
15096;SDS011;7649;52.084;7.478;2023-02-10T14:28:17;20.53;;;11.73;;
15096;SDS011;7649;52.084;7.478;2023-02-10T14:30:50;25.47;;;12.60;;
15096;SDS011;7649;52.084;7.478;2023-02-10T14:33:22;23.03;;;12.07;;
15096;SDS011;7649;52.084;7.478;2023-02-10T14:35:52;21.60;;;11.47;;
15096;SDS011;7649;52.084;7.478;2023-02-10T14:38:22;24.33;;;11.63;;
15096;SDS011;7649;52.084;7.478;2023-02-10T14:40:54;24.70;;;11.43;;
15096;SDS011;7649;52.084;7.478;2023-02-10T14:43:24;18.80;;;11.00;;
15096;SDS011;7649;52.084;7.478;2023-02-10T14:45:53;24.37;;;11.33;;
15096;SDS011;7649;52.084;7.478;2023-02-10T14:48:23;19.73;;;10.93;;
15096;SDS011;7649;52.084;7.478;2023-02-10T14:50:59;21.70;;;11.47;;
15096;SDS011;7649;52.084;7.478;2023-02-10T14:53:28;19.63;;;10.60;;
15096;SDS011;7649;52.084;7.478;2023-02-10T14:55:59;21.13;;;11.63;;
15096;SDS011;7649;52.084;7.478;2023-02-10T14:58:28;21.73;;;11.53;;
15096;SDS011;7649;52.084;7.478;2023-02-10T15:00:58;24.50;;;12.43;;
15096;SDS011;7649;52.084;7.478;2023-02-10T15:03:28;22.10;;;11.63;;
15096;SDS011;7649;52.084;7.478;2023-02-10T15:05:56;25.60;;;11.43;;
15096;SDS011;7649;52.084;7.478;2023-02-10T15:08:30;22.60;;;11.67;;
15096;SDS011;7649;52.084;7.478;2023-02-10T15:11:01;24.07;;;12.30;;
15096;SDS011;7649;52.084;7.478;2023-02-10T15:13:31;20.50;;;10.80;;